sensor_id;sensor_type;location;lat;lon;timestamp;pressure;altitude;pressure_sealevel;temperature
22322;BMP180;11328;53.928;18.522;2023-08-08T00:02:00;98966.00;;;16.20
22322;BMP180;11328;53.928;18.522;2023-08-08T00:04:27;98953.00;;;16.20
22322;BMP180;11328;53.928;18.522;2023-08-08T00:06:54;98965.00;;;16.10
22322;BMP180;11328;53.928;18.522;2023-08-08T00:09:21;98966.00;;;16.00
22322;BMP180;11328;53.928;18.522;2023-08-08T00:11:48;98977.00;;;16.00
22322;BMP180;11328;53.928;18.522;2023-08-08T00:14:15;98948.00;;;16.00
22322;BMP180;11328;53.928;18.522;2023-08-08T00:16:42;98976.00;;;16.00
22322;BMP180;11328;53.928;18.522;2023-08-08T00:19:09;98974.00;;;16.00
22322;BMP180;11328;53.928;18.522;2023-08-08T00:21:36;98969.00;;;15.90
22322;BMP180;11328;53.928;18.522;2023-08-08T00:24:03;98973.00;;;16.00
22322;BMP180;11328;53.928;18.522;2023-08-08T00:26:30;98959.00;;;15.90
22322;BMP180;11328;53.928;18.522;2023-08-08T00:28:57;98974.00;;;15.90
22322;BMP180;11328;53.928;18.522;2023-08-08T00:31:24;98974.00;;;15.80
22322;BMP180;11328;53.928;18.522;2023-08-08T00:33:51;98969.00;;;15.80
22322;BMP180;11328;53.928;18.522;2023-08-08T00:36:18;98970.00;;;15.80
22322;BMP180;11328;53.928;18.522;2023-08-08T00:38:45;98972.00;;;15.70
22322;BMP180;11328;53.928;18.522;2023-08-08T00:41:12;98954.00;;;15.70
22322;BMP180;11328;53.928;18.522;2023-08-08T00:43:39;98966.00;;;15.70
22322;BMP180;11328;53.928;18.522;2023-08-08T00:46:06;98976.00;;;15.70
22322;BMP180;11328;53.928;18.522;2023-08-08T00:48:34;98968.00;;;15.70
22322;BMP180;11328;53.928;18.522;2023-08-08T00:51:01;98978.00;;;15.60
22322;BMP180;11328;53.928;18.522;2023-08-08T00:53:30;98968.00;;;15.50
22322;BMP180;11328;53.928;18.522;2023-08-08T00:55:58;98996.00;;;15.50
22322;BMP180;11328;53.928;18.522;2023-08-08T00:58:26;98958.00;;;15.60
22322;BMP180;11328;53.928;18.522;2023-08-08T01:00:55;98972.00;;;15.60
22322;BMP180;11328;53.928;18.522;2023-08-08T01:03:24;98968.00;;;15.60
22322;BMP180;11328;53.928;18.522;2023-08-08T01:06:08;98980.00;;;15.60
22322;BMP180;11328;53.928;18.522;2023-08-08T01:09:04;98977.00;;;15.70
22322;BMP180;11328;53.928;18.522;2023-08-08T01:11:37;98980.00;;;15.60
22322;BMP180;11328;53.928;18.522;2023-08-08T01:14:07;98979.00;;;15.50
22322;BMP180;11328;53.928;18.522;2023-08-08T01:16:34;98975.00;;;15.50
22322;BMP180;11328;53.928;18.522;2023-08-08T01:19:03;98981.00;;;15.60
22322;BMP180;11328;53.928;18.522;2023-08-08T01:21:37;98984.00;;;15.50
22322;BMP180;11328;53.928;18.522;2023-08-08T01:24:23;98964.00;;;15.50
22322;BMP180;11328;53.928;18.522;2023-08-08T01:26:50;98980.00;;;15.40
22322;BMP180;11328;53.928;18.522;2023-08-08T01:29:17;98975.00;;;15.30
22322;BMP180;11328;53.928;18.522;2023-08-08T01:31:45;98974.00;;;15.20
22322;BMP180;11328;53.928;18.522;2023-08-08T01:34:12;98975.00;;;15.20
22322;BMP180;11328;53.928;18.522;2023-08-08T01:39:22;98996.00;;;15.20
22322;BMP180;11328;53.928;18.522;2023-08-08T01:41:50;98996.00;;;15.20
22322;BMP180;11328;53.928;18.522;2023-08-08T01:44:17;98989.00;;;15.20
22322;BMP180;11328;53.928;18.522;2023-08-08T01:46:45;98999.00;;;15.20
22322;BMP180;11328;53.928;18.522;2023-08-08T01:49:12;99000.00;;;15.30
22322;BMP180;11328;53.928;18.522;2023-08-08T01:51:39;98991.00;;;15.20
22322;BMP180;11328;53.928;18.522;2023-08-08T01:54:06;98995.00;;;15.30
22322;BMP180;11328;53.928;18.522;2023-08-08T01:56:33;98983.00;;;15.30
22322;BMP180;11328;53.928;18.522;2023-08-08T01:59:00;98983.00;;;15.30
22322;BMP180;11328;53.928;18.522;2023-08-08T02:01:27;98986.00;;;15.30
22322;BMP180;11328;53.928;18.522;2023-08-08T02:03:54;98995.00;;;15.10
22322;BMP180;11328;53.928;18.522;2023-08-08T02:06:22;98997.00;;;15.20
22322;BMP180;11328;53.928;18.522;2023-08-08T02:08:49;98992.00;;;15.20
22322;BMP180;11328;53.928;18.522;2023-08-08T02:11:16;98988.00;;;15.30
22322;BMP180;11328;53.928;18.522;2023-08-08T02:13:43;98988.00;;;15.30
22322;BMP180;11328;53.928;18.522;2023-08-08T02:16:10;98990.00;;;15.30
22322;BMP180;11328;53.928;18.522;2023-08-08T02:18:37;98985.00;;;15.30
22322;BMP180;11328;53.928;18.522;2023-08-08T02:21:08;98982.00;;;15.40
22322;BMP180;11328;53.928;18.522;2023-08-08T02:23:35;98996.00;;;15.40
22322;BMP180;11328;53.928;18.522;2023-08-08T02:26:02;98985.00;;;15.40
22322;BMP180;11328;53.928;18.522;2023-08-08T02:28:29;98991.00;;;15.30
22322;BMP180;11328;53.928;18.522;2023-08-08T02:30:56;98990.00;;;15.40
22322;BMP180;11328;53.928;18.522;2023-08-08T02:33:23;99005.00;;;15.50
22322;BMP180;11328;53.928;18.522;2023-08-08T02:35:50;99002.00;;;15.50
22322;BMP180;11328;53.928;18.522;2023-08-08T02:38:17;99000.00;;;15.30
22322;BMP180;11328;53.928;18.522;2023-08-08T02:40:44;98997.00;;;15.20
22322;BMP180;11328;53.928;18.522;2023-08-08T02:43:10;98995.00;;;15.30
22322;BMP180;11328;53.928;18.522;2023-08-08T02:45:38;98991.00;;;15.30
22322;BMP180;11328;53.928;18.522;2023-08-08T02:48:05;98998.00;;;15.10
22322;BMP180;11328;53.928;18.522;2023-08-08T02:50:32;98992.00;;;15.20
22322;BMP180;11328;53.928;18.522;2023-08-08T02:52:59;98990.00;;;15.00
22322;BMP180;11328;53.928;18.522;2023-08-08T02:55:26;98993.00;;;15.20
22322;BMP180;11328;53.928;18.522;2023-08-08T02:57:53;99000.00;;;15.20
22322;BMP180;11328;53.928;18.522;2023-08-08T03:00:20;98994.00;;;15.20
22322;BMP180;11328;53.928;18.522;2023-08-08T03:02:47;99006.00;;;15.30
22322;BMP180;11328;53.928;18.522;2023-08-08T03:05:14;99003.00;;;15.30
22322;BMP180;11328;53.928;18.522;2023-08-08T03:07:41;99006.00;;;15.20
22322;BMP180;11328;53.928;18.522;2023-08-08T03:10:09;99016.00;;;15.20
22322;BMP180;11328;53.928;18.522;2023-08-08T03:12:36;99003.00;;;15.10
22322;BMP180;11328;53.928;18.522;2023-08-08T03:15:05;99018.00;;;15.50
22322;BMP180;11328;53.928;18.522;2023-08-08T03:17:33;99022.00;;;15.60
22322;BMP180;11328;53.928;18.522;2023-08-08T03:20:01;99006.00;;;15.80
22322;BMP180;11328;53.928;18.522;2023-08-08T03:22:30;99025.00;;;15.70
22322;BMP180;11328;53.928;18.522;2023-08-08T03:24:57;99026.00;;;15.60
22322;BMP180;11328;53.928;18.522;2023-08-08T03:27:25;99022.00;;;15.60
22322;BMP180;11328;53.928;18.522;2023-08-08T03:29:52;99023.00;;;15.70
22322;BMP180;11328;53.928;18.522;2023-08-08T03:32:18;99021.00;;;15.60
22322;BMP180;11328;53.928;18.522;2023-08-08T03:34:45;99027.00;;;15.60
22322;BMP180;11328;53.928;18.522;2023-08-08T03:37:12;99028.00;;;15.60
22322;BMP180;11328;53.928;18.522;2023-08-08T03:39:39;99038.00;;;15.70
22322;BMP180;11328;53.928;18.522;2023-08-08T03:42:07;99037.00;;;15.70
22322;BMP180;11328;53.928;18.522;2023-08-08T03:44:34;99049.00;;;15.70
22322;BMP180;11328;53.928;18.522;2023-08-08T03:47:01;99047.00;;;15.70
22322;BMP180;11328;53.928;18.522;2023-08-08T03:49:44;99064.00;;;15.80
22322;BMP180;11328;53.928;18.522;2023-08-08T03:52:11;99044.00;;;15.90
22322;BMP180;11328;53.928;18.522;2023-08-08T03:54:39;99060.00;;;15.80
22322;BMP180;11328;53.928;18.522;2023-08-08T03:57:06;99054.00;;;15.70
22322;BMP180;11328;53.928;18.522;2023-08-08T03:59:33;99061.00;;;15.80
22322;BMP180;11328;53.928;18.522;2023-08-08T04:02:00;99052.00;;;15.70
22322;BMP180;11328;53.928;18.522;2023-08-08T04:04:28;99056.00;;;15.70
22322;BMP180;11328;53.928;18.522;2023-08-08T04:06:54;99060.00;;;15.70
22322;BMP180;11328;53.928;18.522;2023-08-08T04:09:21;99074.00;;;15.90
22322;BMP180;11328;53.928;18.522;2023-08-08T04:11:48;99085.00;;;15.90
22322;BMP180;11328;53.928;18.522;2023-08-08T04:14:15;99075.00;;;15.90
22322;BMP180;11328;53.928;18.522;2023-08-08T04:16:42;99086.00;;;15.80
22322;BMP180;11328;53.928;18.522;2023-08-08T04:19:09;99090.00;;;15.80
22322;BMP180;11328;53.928;18.522;2023-08-08T04:21:36;99083.00;;;15.80
22322;BMP180;11328;53.928;18.522;2023-08-08T04:24:03;99094.00;;;15.80
22322;BMP180;11328;53.928;18.522;2023-08-08T04:26:30;99096.00;;;15.90
22322;BMP180;11328;53.928;18.522;2023-08-08T04:28:57;99098.00;;;16.00
22322;BMP180;11328;53.928;18.522;2023-08-08T04:31:24;99098.00;;;16.00
22322;BMP180;11328;53.928;18.522;2023-08-08T04:33:52;99117.00;;;16.10
22322;BMP180;11328;53.928;18.522;2023-08-08T04:36:29;99116.00;;;15.90
22322;BMP180;11328;53.928;18.522;2023-08-08T04:38:56;99113.00;;;15.90
22322;BMP180;11328;53.928;18.522;2023-08-08T04:41:23;99123.00;;;15.90
22322;BMP180;11328;53.928;18.522;2023-08-08T04:43:50;99119.00;;;16.00
22322;BMP180;11328;53.928;18.522;2023-08-08T04:46:17;99122.00;;;16.00
22322;BMP180;11328;53.928;18.522;2023-08-08T04:48:44;99122.00;;;16.10
22322;BMP180;11328;53.928;18.522;2023-08-08T04:51:11;99130.00;;;16.20
22322;BMP180;11328;53.928;18.522;2023-08-08T04:53:38;99125.00;;;16.20
22322;BMP180;11328;53.928;18.522;2023-08-08T04:56:05;99129.00;;;16.20
22322;BMP180;11328;53.928;18.522;2023-08-08T04:58:32;99140.00;;;16.30
22322;BMP180;11328;53.928;18.522;2023-08-08T05:00:59;99131.00;;;16.40
22322;BMP180;11328;53.928;18.522;2023-08-08T05:03:26;99127.00;;;16.40
22322;BMP180;11328;53.928;18.522;2023-08-08T05:05:53;99126.00;;;16.30
22322;BMP180;11328;53.928;18.522;2023-08-08T05:08:20;99144.00;;;16.30
22322;BMP180;11328;53.928;18.522;2023-08-08T05:10:47;99138.00;;;16.30
22322;BMP180;11328;53.928;18.522;2023-08-08T05:13:14;99147.00;;;16.30
22322;BMP180;11328;53.928;18.522;2023-08-08T05:15:41;99144.00;;;16.50
22322;BMP180;11328;53.928;18.522;2023-08-08T05:18:08;99149.00;;;16.50
22322;BMP180;11328;53.928;18.522;2023-08-08T05:20:35;99153.00;;;16.50
22322;BMP180;11328;53.928;18.522;2023-08-08T05:23:02;99156.00;;;16.50
22322;BMP180;11328;53.928;18.522;2023-08-08T05:25:29;99160.00;;;16.50
22322;BMP180;11328;53.928;18.522;2023-08-08T05:27:56;99159.00;;;16.50
22322;BMP180;11328;53.928;18.522;2023-08-08T05:30:23;99160.00;;;16.60
22322;BMP180;11328;53.928;18.522;2023-08-08T05:32:50;99163.00;;;16.70
22322;BMP180;11328;53.928;18.522;2023-08-08T05:35:17;99161.00;;;16.70
22322;BMP180;11328;53.928;18.522;2023-08-08T05:37:44;99166.00;;;16.60
22322;BMP180;11328;53.928;18.522;2023-08-08T05:40:11;99179.00;;;16.70
22322;BMP180;11328;53.928;18.522;2023-08-08T05:42:39;99186.00;;;16.70
22322;BMP180;11328;53.928;18.522;2023-08-08T05:45:07;99176.00;;;16.60
22322;BMP180;11328;53.928;18.522;2023-08-08T05:47:34;99185.00;;;16.70
22322;BMP180;11328;53.928;18.522;2023-08-08T05:50:01;99182.00;;;16.70
22322;BMP180;11328;53.928;18.522;2023-08-08T05:52:29;99191.00;;;16.80
22322;BMP180;11328;53.928;18.522;2023-08-08T05:54:56;99186.00;;;16.90
22322;BMP180;11328;53.928;18.522;2023-08-08T05:57:23;99197.00;;;16.90
22322;BMP180;11328;53.928;18.522;2023-08-08T05:59:50;99194.00;;;17.10
22322;BMP180;11328;53.928;18.522;2023-08-08T06:02:17;99194.00;;;17.00
22322;BMP180;11328;53.928;18.522;2023-08-08T06:04:44;99199.00;;;16.90
22322;BMP180;11328;53.928;18.522;2023-08-08T06:07:12;99189.00;;;17.00
22322;BMP180;11328;53.928;18.522;2023-08-08T06:09:39;99203.00;;;17.20
22322;BMP180;11328;53.928;18.522;2023-08-08T06:12:06;99201.00;;;17.30
22322;BMP180;11328;53.928;18.522;2023-08-08T06:14:34;99207.00;;;17.30
22322;BMP180;11328;53.928;18.522;2023-08-08T06:17:01;99204.00;;;17.40
22322;BMP180;11328;53.928;18.522;2023-08-08T06:19:28;99221.00;;;17.30
22322;BMP180;11328;53.928;18.522;2023-08-08T06:21:55;99221.00;;;17.30
22322;BMP180;11328;53.928;18.522;2023-08-08T06:24:22;99212.00;;;17.30
22322;BMP180;11328;53.928;18.522;2023-08-08T06:26:49;99223.00;;;17.20
22322;BMP180;11328;53.928;18.522;2023-08-08T06:29:16;99222.00;;;17.30
22322;BMP180;11328;53.928;18.522;2023-08-08T06:31:43;99221.00;;;17.30
22322;BMP180;11328;53.928;18.522;2023-08-08T06:34:10;99219.00;;;17.80
22322;BMP180;11328;53.928;18.522;2023-08-08T06:36:37;99155.00;;;18.00
22322;BMP180;11328;53.928;18.522;2023-08-08T06:39:05;99229.00;;;18.30
22322;BMP180;11328;53.928;18.522;2023-08-08T06:41:32;99231.00;;;18.50
22322;BMP180;11328;53.928;18.522;2023-08-08T06:43:59;99220.00;;;18.60
22322;BMP180;11328;53.928;18.522;2023-08-08T06:46:26;99224.00;;;19.00
22322;BMP180;11328;53.928;18.522;2023-08-08T06:48:53;99219.00;;;18.80
22322;BMP180;11328;53.928;18.522;2023-08-08T06:51:25;99243.00;;;19.00
22322;BMP180;11328;53.928;18.522;2023-08-08T06:53:53;99216.00;;;18.90
22322;BMP180;11328;53.928;18.522;2023-08-08T06:56:20;99248.00;;;18.80
22322;BMP180;11328;53.928;18.522;2023-08-08T06:58:47;99240.00;;;18.50
22322;BMP180;11328;53.928;18.522;2023-08-08T07:01:14;99224.00;;;18.60
22322;BMP180;11328;53.928;18.522;2023-08-08T07:03:41;99250.00;;;18.80
22322;BMP180;11328;53.928;18.522;2023-08-08T07:06:09;99258.00;;;18.70
22322;BMP180;11328;53.928;18.522;2023-08-08T07:08:36;99257.00;;;18.60
22322;BMP180;11328;53.928;18.522;2023-08-08T07:11:06;99262.00;;;18.40
22322;BMP180;11328;53.928;18.522;2023-08-08T07:13:33;99270.00;;;18.20
22322;BMP180;11328;53.928;18.522;2023-08-08T07:16:00;99264.00;;;18.30
22322;BMP180;11328;53.928;18.522;2023-08-08T07:18:28;99267.00;;;18.10
22322;BMP180;11328;53.928;18.522;2023-08-08T07:20:55;99272.00;;;18.20
22322;BMP180;11328;53.928;18.522;2023-08-08T07:23:23;99252.00;;;18.40
22322;BMP180;11328;53.928;18.522;2023-08-08T07:25:50;99277.00;;;18.50
22322;BMP180;11328;53.928;18.522;2023-08-08T07:28:17;99285.00;;;18.70
22322;BMP180;11328;53.928;18.522;2023-08-08T07:30:44;99278.00;;;18.70
22322;BMP180;11328;53.928;18.522;2023-08-08T07:33:12;99289.00;;;18.50
22322;BMP180;11328;53.928;18.522;2023-08-08T07:35:40;99287.00;;;18.40
22322;BMP180;11328;53.928;18.522;2023-08-08T07:38:07;99285.00;;;18.30
22322;BMP180;11328;53.928;18.522;2023-08-08T07:40:35;99289.00;;;17.90
22322;BMP180;11328;53.928;18.522;2023-08-08T07:43:03;99296.00;;;17.80
22322;BMP180;11328;53.928;18.522;2023-08-08T07:45:30;99305.00;;;17.90
22322;BMP180;11328;53.928;18.522;2023-08-08T07:47:57;99298.00;;;18.20
22322;BMP180;11328;53.928;18.522;2023-08-08T07:50:24;99320.00;;;18.10
22322;BMP180;11328;53.928;18.522;2023-08-08T07:52:51;99291.00;;;18.10
22322;BMP180;11328;53.928;18.522;2023-08-08T07:55:18;99312.00;;;18.20
22322;BMP180;11328;53.928;18.522;2023-08-08T07:57:45;99283.00;;;18.40
22322;BMP180;11328;53.928;18.522;2023-08-08T08:00:13;99316.00;;;18.70
22322;BMP180;11328;53.928;18.522;2023-08-08T08:02:42;99315.00;;;18.60
22322;BMP180;11328;53.928;18.522;2023-08-08T08:05:10;99317.00;;;18.40
22322;BMP180;11328;53.928;18.522;2023-08-08T08:07:38;99318.00;;;18.40
22322;BMP180;11328;53.928;18.522;2023-08-08T08:10:09;99312.00;;;18.40
22322;BMP180;11328;53.928;18.522;2023-08-08T08:12:36;99329.00;;;18.40
22322;BMP180;11328;53.928;18.522;2023-08-08T08:15:04;99322.00;;;18.80
22322;BMP180;11328;53.928;18.522;2023-08-08T08:17:32;99326.00;;;18.70
22322;BMP180;11328;53.928;18.522;2023-08-08T08:19:59;99331.00;;;18.60
22322;BMP180;11328;53.928;18.522;2023-08-08T08:22:26;99340.00;;;18.50
22322;BMP180;11328;53.928;18.522;2023-08-08T08:24:53;99337.00;;;18.40
22322;BMP180;11328;53.928;18.522;2023-08-08T08:27:20;99356.00;;;18.50
22322;BMP180;11328;53.928;18.522;2023-08-08T08:29:47;99339.00;;;18.70
22322;BMP180;11328;53.928;18.522;2023-08-08T08:32:14;99342.00;;;18.90
22322;BMP180;11328;53.928;18.522;2023-08-08T08:34:41;99348.00;;;19.10
22322;BMP180;11328;53.928;18.522;2023-08-08T08:37:09;99359.00;;;18.90
22322;BMP180;11328;53.928;18.522;2023-08-08T08:39:36;99346.00;;;18.70
22322;BMP180;11328;53.928;18.522;2023-08-08T08:42:04;99350.00;;;18.70
22322;BMP180;11328;53.928;18.522;2023-08-08T08:44:32;99351.00;;;18.60
22322;BMP180;11328;53.928;18.522;2023-08-08T08:47:04;99359.00;;;18.60
22322;BMP180;11328;53.928;18.522;2023-08-08T08:49:32;99355.00;;;18.70
22322;BMP180;11328;53.928;18.522;2023-08-08T08:51:59;99347.00;;;19.00
22322;BMP180;11328;53.928;18.522;2023-08-08T08:54:32;99366.00;;;19.40
22322;BMP180;11328;53.928;18.522;2023-08-08T08:56:59;99367.00;;;19.70
22322;BMP180;11328;53.928;18.522;2023-08-08T08:59:26;99361.00;;;19.60
22322;BMP180;11328;53.928;18.522;2023-08-08T09:01:55;99378.00;;;19.20
22322;BMP180;11328;53.928;18.522;2023-08-08T09:04:22;99365.00;;;19.00
22322;BMP180;11328;53.928;18.522;2023-08-08T09:06:52;99373.00;;;19.20
22322;BMP180;11328;53.928;18.522;2023-08-08T09:09:19;99365.00;;;19.30
22322;BMP180;11328;53.928;18.522;2023-08-08T09:11:51;99365.00;;;19.70
22322;BMP180;11328;53.928;18.522;2023-08-08T09:14:28;99347.00;;;20.10
22322;BMP180;11328;53.928;18.522;2023-08-08T09:16:55;99369.00;;;20.40
22322;BMP180;11328;53.928;18.522;2023-08-08T09:19:24;99349.00;;;20.10
22322;BMP180;11328;53.928;18.522;2023-08-08T09:21:52;99374.00;;;20.10
22322;BMP180;11328;53.928;18.522;2023-08-08T09:24:20;99376.00;;;20.00
22322;BMP180;11328;53.928;18.522;2023-08-08T09:26:47;99386.00;;;19.40
22322;BMP180;11328;53.928;18.522;2023-08-08T09:29:15;99364.00;;;19.10
22322;BMP180;11328;53.928;18.522;2023-08-08T09:31:42;99366.00;;;19.10
22322;BMP180;11328;53.928;18.522;2023-08-08T09:34:09;99351.00;;;19.70
22322;BMP180;11328;53.928;18.522;2023-08-08T09:36:36;99354.00;;;20.10
22322;BMP180;11328;53.928;18.522;2023-08-08T09:39:04;99360.00;;;20.20
22322;BMP180;11328;53.928;18.522;2023-08-08T09:41:32;99370.00;;;20.70
22322;BMP180;11328;53.928;18.522;2023-08-08T09:43:59;99366.00;;;21.00
22322;BMP180;11328;53.928;18.522;2023-08-08T09:46:30;99358.00;;;21.30
22322;BMP180;11328;53.928;18.522;2023-08-08T09:49:01;99369.00;;;21.30
22322;BMP180;11328;53.928;18.522;2023-08-08T09:51:28;99304.00;;;20.90
22322;BMP180;11328;53.928;18.522;2023-08-08T09:53:56;99363.00;;;20.50
22322;BMP180;11328;53.928;18.522;2023-08-08T09:56:24;99386.00;;;20.40
22322;BMP180;11328;53.928;18.522;2023-08-08T09:58:53;99393.00;;;20.40
22322;BMP180;11328;53.928;18.522;2023-08-08T10:01:20;99385.00;;;20.60
22322;BMP180;11328;53.928;18.522;2023-08-08T10:03:51;99372.00;;;21.00
22322;BMP180;11328;53.928;18.522;2023-08-08T10:06:19;99376.00;;;21.40
22322;BMP180;11328;53.928;18.522;2023-08-08T10:08:46;99383.00;;;21.00
22322;BMP180;11328;53.928;18.522;2023-08-08T10:11:14;99387.00;;;20.90
22322;BMP180;11328;53.928;18.522;2023-08-08T10:13:50;99393.00;;;20.70
22322;BMP180;11328;53.928;18.522;2023-08-08T10:16:17;99402.00;;;20.50
22322;BMP180;11328;53.928;18.522;2023-08-08T10:19:03;99400.00;;;20.30
22322;BMP180;11328;53.928;18.522;2023-08-08T10:21:43;99383.00;;;20.00
22322;BMP180;11328;53.928;18.522;2023-08-08T10:24:11;99397.00;;;20.50
22322;BMP180;11328;53.928;18.522;2023-08-08T10:26:58;99399.00;;;20.50
22322;BMP180;11328;53.928;18.522;2023-08-08T10:29:29;99414.00;;;20.70
22322;BMP180;11328;53.928;18.522;2023-08-08T10:32:05;99408.00;;;20.70
22322;BMP180;11328;53.928;18.522;2023-08-08T10:34:46;99409.00;;;21.40
22322;BMP180;11328;53.928;18.522;2023-08-08T10:37:17;99419.00;;;21.50
22322;BMP180;11328;53.928;18.522;2023-08-08T10:39:59;99415.00;;;21.20
22322;BMP180;11328;53.928;18.522;2023-08-08T10:42:28;99427.00;;;21.00
22322;BMP180;11328;53.928;18.522;2023-08-08T10:45:00;99429.00;;;20.70
22322;BMP180;11328;53.928;18.522;2023-08-08T10:47:33;99431.00;;;20.70
22322;BMP180;11328;53.928;18.522;2023-08-08T10:50:07;99417.00;;;20.80
22322;BMP180;11328;53.928;18.522;2023-08-08T10:52:55;99425.00;;;21.50
22322;BMP180;11328;53.928;18.522;2023-08-08T10:55:35;99408.00;;;21.40
22322;BMP180;11328;53.928;18.522;2023-08-08T10:58:10;99425.00;;;21.30
22322;BMP180;11328;53.928;18.522;2023-08-08T11:00:40;99425.00;;;21.30
22322;BMP180;11328;53.928;18.522;2023-08-08T11:03:08;99431.00;;;21.10
22322;BMP180;11328;53.928;18.522;2023-08-08T11:05:37;99420.00;;;21.30
22322;BMP180;11328;53.928;18.522;2023-08-08T11:08:06;99437.00;;;21.60
22322;BMP180;11328;53.928;18.522;2023-08-08T11:10:39;99431.00;;;21.80
22322;BMP180;11328;53.928;18.522;2023-08-08T11:13:08;99451.00;;;21.60
22322;BMP180;11328;53.928;18.522;2023-08-08T11:15:36;99453.00;;;21.50
22322;BMP180;11328;53.928;18.522;2023-08-08T11:18:05;99445.00;;;21.40
22322;BMP180;11328;53.928;18.522;2023-08-08T11:20:35;99457.00;;;21.20
22322;BMP180;11328;53.928;18.522;2023-08-08T11:23:02;99460.00;;;21.00
22322;BMP180;11328;53.928;18.522;2023-08-08T11:25:32;99451.00;;;21.10
22322;BMP180;11328;53.928;18.522;2023-08-08T11:27:59;99461.00;;;21.70
22322;BMP180;11328;53.928;18.522;2023-08-08T11:30:35;99462.00;;;22.10
22322;BMP180;11328;53.928;18.522;2023-08-08T11:33:04;99474.00;;;22.20
22322;BMP180;11328;53.928;18.522;2023-08-08T11:35:34;99451.00;;;22.10
22322;BMP180;11328;53.928;18.522;2023-08-08T11:38:03;99451.00;;;21.90
22322;BMP180;11328;53.928;18.522;2023-08-08T11:40:32;99454.00;;;21.50
22322;BMP180;11328;53.928;18.522;2023-08-08T11:42:59;99472.00;;;21.10
22322;BMP180;11328;53.928;18.522;2023-08-08T11:45:27;99503.00;;;20.80
22322;BMP180;11328;53.928;18.522;2023-08-08T11:47:55;99528.00;;;19.40
22322;BMP180;11328;53.928;18.522;2023-08-08T11:50:25;99510.00;;;18.80
22322;BMP180;11328;53.928;18.522;2023-08-08T11:52:55;99496.00;;;19.20
22322;BMP180;11328;53.928;18.522;2023-08-08T11:55:29;99498.00;;;19.60
22322;BMP180;11328;53.928;18.522;2023-08-08T11:57:56;99502.00;;;20.10
22322;BMP180;11328;53.928;18.522;2023-08-08T12:00:29;99501.00;;;19.90
22322;BMP180;11328;53.928;18.522;2023-08-08T12:03:00;99498.00;;;19.90
22322;BMP180;11328;53.928;18.522;2023-08-08T12:05:28;99511.00;;;20.20
22322;BMP180;11328;53.928;18.522;2023-08-08T12:07:55;99508.00;;;20.30
22322;BMP180;11328;53.928;18.522;2023-08-08T12:10:25;99513.00;;;20.60
22322;BMP180;11328;53.928;18.522;2023-08-08T12:12:57;99517.00;;;20.70
22322;BMP180;11328;53.928;18.522;2023-08-08T12:15:34;99520.00;;;20.40
22322;BMP180;11328;53.928;18.522;2023-08-08T12:18:03;99530.00;;;20.50
22322;BMP180;11328;53.928;18.522;2023-08-08T12:20:31;99505.00;;;20.40
22322;BMP180;11328;53.928;18.522;2023-08-08T12:22:59;99519.00;;;20.50
22322;BMP180;11328;53.928;18.522;2023-08-08T12:25:27;99513.00;;;20.40
22322;BMP180;11328;53.928;18.522;2023-08-08T12:27:54;99523.00;;;20.40
22322;BMP180;11328;53.928;18.522;2023-08-08T12:30:21;99531.00;;;20.70
22322;BMP180;11328;53.928;18.522;2023-08-08T12:32:48;99528.00;;;21.10
22322;BMP180;11328;53.928;18.522;2023-08-08T12:35:15;99521.00;;;21.30
22322;BMP180;11328;53.928;18.522;2023-08-08T12:37:43;99511.00;;;21.60
22322;BMP180;11328;53.928;18.522;2023-08-08T12:40:12;99520.00;;;21.60
22322;BMP180;11328;53.928;18.522;2023-08-08T12:42:39;99517.00;;;21.30
22322;BMP180;11328;53.928;18.522;2023-08-08T12:45:07;99522.00;;;21.00
22322;BMP180;11328;53.928;18.522;2023-08-08T12:47:34;99515.00;;;21.10
22322;BMP180;11328;53.928;18.522;2023-08-08T12:50:05;99534.00;;;21.20
22322;BMP180;11328;53.928;18.522;2023-08-08T12:52:33;99528.00;;;21.10
22322;BMP180;11328;53.928;18.522;2023-08-08T12:55:00;99535.00;;;20.90
22322;BMP180;11328;53.928;18.522;2023-08-08T12:57:27;99520.00;;;20.90
22322;BMP180;11328;53.928;18.522;2023-08-08T12:59:55;99532.00;;;20.50
22322;BMP180;11328;53.928;18.522;2023-08-08T13:02:22;99530.00;;;21.00
22322;BMP180;11328;53.928;18.522;2023-08-08T13:04:49;99532.00;;;21.20
22322;BMP180;11328;53.928;18.522;2023-08-08T13:07:16;99544.00;;;21.00
22322;BMP180;11328;53.928;18.522;2023-08-08T13:09:43;99540.00;;;20.70
22322;BMP180;11328;53.928;18.522;2023-08-08T13:12:10;99553.00;;;20.60
22322;BMP180;11328;53.928;18.522;2023-08-08T13:14:37;99552.00;;;20.40
22322;BMP180;11328;53.928;18.522;2023-08-08T13:17:04;99591.00;;;19.90
22322;BMP180;11328;53.928;18.522;2023-08-08T13:19:31;99605.00;;;19.30
22322;BMP180;11328;53.928;18.522;2023-08-08T13:21:58;99612.00;;;18.60
22322;BMP180;11328;53.928;18.522;2023-08-08T13:24:25;99609.00;;;18.30
22322;BMP180;11328;53.928;18.522;2023-08-08T13:26:52;99594.00;;;18.00
22322;BMP180;11328;53.928;18.522;2023-08-08T13:29:19;99601.00;;;18.00
22322;BMP180;11328;53.928;18.522;2023-08-08T13:31:49;99590.00;;;18.10
22322;BMP180;11328;53.928;18.522;2023-08-08T13:34:16;99586.00;;;18.00
22322;BMP180;11328;53.928;18.522;2023-08-08T13:36:43;99592.00;;;18.00
22322;BMP180;11328;53.928;18.522;2023-08-08T13:39:10;99584.00;;;18.20
22322;BMP180;11328;53.928;18.522;2023-08-08T13:41:37;99524.00;;;18.40
22322;BMP180;11328;53.928;18.522;2023-08-08T13:44:04;99588.00;;;18.60
22322;BMP180;11328;53.928;18.522;2023-08-08T13:46:31;99602.00;;;18.70
22322;BMP180;11328;53.928;18.522;2023-08-08T13:48:58;99597.00;;;18.70
22322;BMP180;11328;53.928;18.522;2023-08-08T13:51:25;99589.00;;;18.70
22322;BMP180;11328;53.928;18.522;2023-08-08T13:53:52;99591.00;;;18.70
22322;BMP180;11328;53.928;18.522;2023-08-08T13:56:19;99580.00;;;18.80
22322;BMP180;11328;53.928;18.522;2023-08-08T13:58:47;99583.00;;;19.00
22322;BMP180;11328;53.928;18.522;2023-08-08T14:01:14;99583.00;;;19.10
22322;BMP180;11328;53.928;18.522;2023-08-08T14:03:41;99575.00;;;19.50
22322;BMP180;11328;53.928;18.522;2023-08-08T14:06:08;99577.00;;;19.80